createdAt,value
2022-07-26T00:00:01.470Z,22.70
2022-07-26T00:02:31.144Z,22.60
2022-07-26T00:05:00.354Z,22.60
2022-07-26T00:07:28.359Z,22.50
2022-07-26T00:10:06.483Z,22.50
2022-07-26T00:12:34.913Z,22.40
2022-07-26T00:15:03.440Z,22.40
2022-07-26T00:17:32.855Z,22.40
2022-07-26T00:20:01.237Z,22.40
2022-07-26T00:22:39.805Z,22.30
2022-07-26T00:25:09.913Z,22.20
2022-07-26T00:27:38.029Z,22.10
2022-07-26T00:30:07.652Z,22.10
2022-07-26T00:32:37.563Z,22.10
2022-07-26T00:35:06.529Z,21.90
2022-07-26T00:37:34.765Z,21.90
2022-07-26T00:40:05.505Z,21.90
2022-07-26T00:42:37.163Z,22.00
2022-07-26T00:45:06.500Z,22.00
2022-07-26T00:47:36.351Z,22.00
2022-07-26T00:50:05.688Z,21.90
2022-07-26T00:52:34.065Z,21.90
2022-07-26T00:55:02.111Z,21.90
2022-07-26T00:57:30.615Z,21.90
2022-07-26T01:00:01.213Z,21.90
2022-07-26T01:02:29.332Z,21.90
2022-07-26T01:04:59.016Z,21.90
2022-07-26T01:07:27.168Z,22.00
2022-07-26T01:09:55.285Z,22.00
2022-07-26T01:12:27.733Z,21.90
2022-07-26T01:14:55.840Z,21.90
2022-07-26T01:17:23.972Z,21.90
2022-07-26T01:19:52.086Z,21.90
2022-07-26T01:22:21.489Z,21.80
2022-07-26T01:24:50.202Z,21.80
2022-07-26T01:27:18.382Z,21.80
2022-07-26T01:29:46.414Z,21.80
2022-07-26T01:32:14.613Z,21.80
2022-07-26T01:34:42.606Z,21.70
2022-07-26T01:37:10.696Z,21.70
2022-07-26T01:39:40.136Z,21.70
2022-07-26T01:42:08.534Z,21.70
2022-07-26T01:44:38.178Z,21.70
2022-07-26T01:47:06.577Z,21.70
2022-07-26T01:49:34.649Z,21.70
2022-07-26T01:52:03.630Z,21.70
2022-07-26T01:54:31.933Z,21.70
2022-07-26T01:57:01.313Z,21.60
2022-07-26T01:59:29.334Z,21.60
2022-07-26T02:01:57.483Z,21.60
2022-07-26T02:04:43.319Z,21.60
2022-07-26T02:07:13.091Z,21.60
2022-07-26T02:09:41.502Z,21.60
2022-07-26T02:12:11.906Z,21.60
2022-07-26T02:14:39.856Z,21.60
2022-07-26T02:17:08.211Z,21.60
2022-07-26T02:19:36.371Z,21.60
2022-07-26T02:22:07.641Z,21.60
2022-07-26T02:24:35.774Z,21.60
2022-07-26T02:27:05.025Z,21.50
2022-07-26T02:29:34.426Z,21.50
2022-07-26T02:32:02.564Z,21.50
2022-07-26T02:34:33.772Z,21.50
2022-07-26T02:37:18.589Z,21.50
2022-07-26T02:39:46.752Z,21.50
2022-07-26T02:42:14.787Z,21.50
2022-07-26T02:44:45.015Z,21.40
2022-07-26T02:47:13.093Z,21.40
2022-07-26T02:49:41.166Z,21.40
2022-07-26T02:52:10.224Z,21.40
2022-07-26T02:54:38.297Z,21.40
2022-07-26T02:57:06.581Z,21.40
2022-07-26T02:59:38.471Z,21.40
2022-07-26T03:02:07.982Z,21.30
2022-07-26T03:04:36.093Z,21.30
2022-07-26T03:07:06.423Z,21.30
2022-07-26T03:09:34.677Z,21.30
2022-07-26T03:12:02.718Z,21.30
2022-07-26T03:14:30.890Z,21.30
2022-07-26T03:16:58.891Z,21.30
2022-07-26T03:19:28.293Z,21.20
2022-07-26T03:21:56.380Z,21.20
2022-07-26T03:24:24.420Z,21.20
2022-07-26T03:26:52.797Z,21.20
2022-07-26T03:29:20.869Z,21.10
2022-07-26T03:31:49.208Z,21.20
2022-07-26T03:34:17.286Z,21.10
2022-07-26T03:36:47.166Z,21.10
2022-07-26T03:39:16.511Z,21.10
2022-07-26T03:41:44.534Z,21.10
2022-07-26T03:44:12.592Z,21.10
2022-07-26T03:46:40.721Z,21.10
2022-07-26T03:49:12.059Z,21.10
2022-07-26T03:51:44.230Z,21.10
2022-07-26T03:54:13.753Z,21.10
2022-07-26T03:56:41.019Z,21.10
2022-07-26T03:59:12.463Z,21.10
2022-07-26T04:01:42.369Z,21.00
2022-07-26T04:04:11.493Z,21.00
2022-07-26T04:06:40.063Z,21.00
2022-07-26T04:09:08.565Z,21.00
2022-07-26T04:11:39.432Z,21.00
2022-07-26T04:14:07.879Z,21.00
2022-07-26T04:16:41.421Z,21.00
2022-07-26T04:19:11.575Z,21.00
2022-07-26T04:21:39.942Z,21.00
2022-07-26T04:24:09.552Z,21.00
2022-07-26T04:26:40.471Z,21.00
2022-07-26T04:29:08.569Z,21.00
2022-07-26T04:31:39.927Z,21.00
2022-07-26T04:34:08.313Z,21.00
2022-07-26T04:36:36.741Z,21.00
2022-07-26T04:39:04.895Z,21.00
2022-07-26T04:41:32.978Z,21.00
2022-07-26T04:44:02.640Z,21.10
2022-07-26T04:46:30.744Z,21.00
2022-07-26T04:48:58.946Z,21.00
2022-07-26T04:51:47.096Z,20.90
2022-07-26T04:54:20.388Z,20.90
2022-07-26T04:56:48.850Z,20.90
2022-07-26T04:59:21.685Z,20.80
2022-07-26T05:01:50.454Z,20.70
2022-07-26T05:04:18.899Z,20.70
2022-07-26T05:06:46.985Z,20.60
2022-07-26T05:09:16.042Z,20.60
2022-07-26T05:11:44.010Z,20.50
2022-07-26T05:14:12.070Z,20.50
2022-07-26T05:16:44.311Z,20.40
2022-07-26T05:19:14.054Z,20.40
2022-07-26T05:21:42.182Z,20.40
2022-07-26T05:24:10.811Z,20.30
2022-07-26T05:26:39.135Z,20.30
2022-07-26T05:29:07.189Z,20.30
2022-07-26T05:31:35.133Z,20.20
2022-07-26T05:34:04.746Z,20.20
2022-07-26T05:36:33.010Z,20.20
2022-07-26T05:39:01.136Z,20.20
2022-07-26T05:41:29.193Z,20.20
2022-07-26T05:43:57.164Z,20.20
2022-07-26T05:46:25.285Z,20.20
2022-07-26T05:48:53.742Z,20.20
2022-07-26T05:51:23.175Z,20.20
2022-07-26T05:53:51.641Z,20.20
2022-07-26T05:56:20.547Z,20.20
2022-07-26T05:58:48.823Z,20.20
2022-07-26T06:01:16.826Z,20.30
2022-07-26T06:03:47.454Z,20.30
2022-07-26T06:06:15.484Z,20.20
2022-07-26T06:08:44.891Z,20.20
2022-07-26T06:11:12.836Z,20.20
2022-07-26T06:13:40.833Z,20.20
2022-07-26T06:16:09.406Z,20.20
2022-07-26T06:18:37.863Z,20.20
2022-07-26T06:21:06.057Z,20.20
2022-07-26T06:23:35.143Z,20.20
2022-07-26T06:26:05.563Z,20.20
2022-07-26T06:28:34.154Z,20.20
2022-07-26T06:31:02.416Z,20.30
2022-07-26T06:33:30.396Z,20.20
2022-07-26T06:35:58.450Z,20.20
2022-07-26T06:38:26.841Z,20.20
2022-07-26T06:40:55.024Z,20.20
2022-07-26T06:43:24.470Z,20.20
2022-07-26T06:45:52.598Z,20.20
2022-07-26T06:48:20.621Z,20.20
2022-07-26T06:50:48.689Z,20.20
2022-07-26T06:53:16.702Z,20.20
2022-07-26T06:55:44.719Z,20.20
2022-07-26T06:58:14.038Z,20.30
2022-07-26T07:00:44.210Z,20.20
2022-07-26T07:03:12.406Z,20.20
2022-07-26T07:05:40.398Z,20.20
2022-07-26T07:08:08.587Z,20.20
2022-07-26T07:10:38.515Z,20.10
2022-07-26T07:13:06.607Z,20.10
2022-07-26T07:15:34.570Z,20.10
2022-07-26T07:18:04.246Z,20.10
2022-07-26T07:20:32.409Z,20.00
2022-07-26T07:23:00.493Z,20.10
2022-07-26T07:25:30.917Z,20.10
2022-07-26T07:28:00.008Z,20.10
2022-07-26T07:30:28.593Z,20.10
2022-07-26T07:32:56.946Z,20.10
2022-07-26T07:35:32.134Z,20.10
2022-07-26T07:38:01.978Z,20.10
2022-07-26T07:40:30.357Z,20.10
2022-07-26T07:42:58.894Z,20.10
2022-07-26T07:45:27.474Z,20.10
2022-07-26T07:47:55.736Z,20.10
2022-07-26T07:50:27.081Z,20.10
2022-07-26T07:52:58.020Z,20.20
2022-07-26T07:55:43.972Z,20.10
2022-07-26T07:58:35.118Z,20.10
2022-07-26T08:01:03.710Z,20.10
2022-07-26T08:03:38.421Z,20.10
2022-07-26T08:06:09.485Z,20.10
2022-07-26T08:08:39.748Z,20.10
2022-07-26T08:11:08.055Z,20.10
2022-07-26T08:13:42.378Z,20.10
2022-07-26T08:16:12.891Z,20.10
2022-07-26T08:18:55.665Z,20.10
2022-07-26T08:21:25.026Z,20.20
2022-07-26T08:23:57.794Z,20.30
2022-07-26T08:26:25.972Z,20.30
2022-07-26T08:29:00.047Z,20.30
2022-07-26T08:31:38.209Z,20.40
2022-07-26T08:34:06.568Z,20.40
2022-07-26T08:36:34.740Z,20.40
2022-07-26T08:39:05.174Z,20.40
2022-07-26T08:41:36.448Z,20.40
2022-07-26T08:44:08.899Z,20.50
2022-07-26T08:46:41.073Z,20.50
2022-07-26T08:49:11.296Z,20.50
2022-07-26T08:51:43.356Z,20.50
2022-07-26T08:54:14.566Z,20.50
2022-07-26T08:56:50.124Z,20.50
2022-07-26T08:59:22.098Z,20.50
2022-07-26T09:01:55.372Z,20.50
2022-07-26T09:04:34.544Z,20.50
2022-07-26T09:07:07.216Z,20.50
2022-07-26T09:09:38.704Z,20.50
2022-07-26T09:12:17.061Z,20.50
2022-07-26T09:14:49.870Z,20.50
2022-07-26T09:17:21.481Z,20.60
2022-07-26T09:20:12.153Z,20.60
2022-07-26T09:22:56.951Z,20.70
2022-07-26T09:25:26.918Z,20.70
2022-07-26T09:27:55.386Z,20.70
2022-07-26T09:30:24.379Z,20.70
2022-07-26T09:33:01.332Z,20.60
2022-07-26T09:35:50.571Z,20.60
2022-07-26T09:38:18.916Z,20.70
2022-07-26T09:40:51.536Z,20.60
2022-07-26T09:43:24.638Z,20.60
2022-07-26T09:46:08.111Z,20.60
2022-07-26T09:49:08.030Z,20.70
2022-07-26T09:51:38.103Z,20.70
2022-07-26T09:54:06.962Z,20.80
2022-07-26T09:56:48.295Z,20.80
2022-07-26T09:59:19.509Z,20.80
2022-07-26T10:01:48.657Z,20.80
2022-07-26T10:04:17.616Z,20.80
2022-07-26T10:06:46.086Z,20.90
2022-07-26T10:09:15.791Z,20.90
2022-07-26T10:11:50.863Z,21.00
2022-07-26T10:14:40.126Z,21.00
2022-07-26T10:17:50.814Z,21.10
2022-07-26T10:20:45.471Z,21.10
2022-07-26T10:23:36.114Z,21.10
2022-07-26T10:26:05.993Z,21.10
2022-07-26T10:28:37.949Z,21.20
2022-07-26T10:31:26.479Z,21.20
2022-07-26T10:33:56.337Z,21.30
2022-07-26T10:36:29.963Z,21.40
2022-07-26T10:39:02.980Z,21.40
2022-07-26T10:41:36.457Z,21.40
2022-07-26T10:44:24.440Z,21.40
2022-07-26T10:47:03.664Z,21.40
2022-07-26T10:49:34.846Z,21.40
2022-07-26T10:52:15.514Z,21.40
2022-07-26T10:55:17.356Z,21.40
2022-07-26T10:57:47.690Z,21.40
2022-07-26T11:00:25.270Z,21.40
2022-07-26T11:02:58.971Z,21.30
2022-07-26T11:05:31.352Z,21.40
2022-07-26T11:08:13.032Z,21.40
2022-07-26T11:10:43.430Z,21.40
2022-07-26T11:13:16.564Z,21.50
2022-07-26T11:15:48.408Z,21.50
2022-07-26T11:18:25.119Z,21.50
2022-07-26T11:20:57.463Z,21.50
2022-07-26T11:23:31.375Z,21.50
2022-07-26T11:26:10.829Z,21.50
2022-07-26T11:28:56.190Z,21.50
2022-07-26T11:31:51.180Z,21.50
2022-07-26T11:34:29.884Z,21.50
2022-07-26T11:36:59.497Z,21.60
2022-07-26T11:39:29.912Z,21.70
2022-07-26T11:41:59.913Z,21.70
2022-07-26T11:44:28.308Z,21.60
2022-07-26T11:46:58.446Z,21.70
2022-07-26T11:49:51.703Z,21.80
2022-07-26T11:52:25.119Z,21.80
2022-07-26T11:54:54.336Z,21.80
2022-07-26T11:57:22.545Z,21.80
2022-07-26T11:59:51.526Z,21.80
2022-07-26T12:02:23.199Z,21.90
2022-07-26T12:05:11.547Z,21.90
2022-07-26T12:07:39.889Z,21.90
2022-07-26T12:10:08.856Z,22.00
2022-07-26T12:12:37.088Z,22.00
2022-07-26T12:15:07.468Z,22.10
2022-07-26T12:17:37.046Z,22.10
2022-07-26T12:20:17.572Z,22.10
2022-07-26T12:22:54.707Z,22.10
2022-07-26T12:25:27.118Z,22.10
2022-07-26T12:27:57.923Z,22.20
2022-07-26T12:30:30.754Z,22.20
2022-07-26T12:33:03.077Z,22.20
2022-07-26T12:35:35.431Z,22.20
2022-07-26T12:38:41.131Z,22.10
2022-07-26T12:41:10.148Z,22.10
2022-07-26T12:43:42.504Z,22.20
2022-07-26T12:46:18.609Z,22.30
2022-07-26T12:48:48.404Z,22.40
2022-07-26T12:51:17.994Z,22.50
2022-07-26T12:53:46.119Z,22.60
2022-07-26T12:56:14.193Z,22.70
2022-07-26T12:58:42.927Z,22.90
2022-07-26T13:01:11.045Z,23.00
2022-07-26T13:03:39.260Z,23.10
2022-07-26T13:06:09.059Z,23.10
2022-07-26T13:08:38.685Z,23.00
2022-07-26T13:11:06.981Z,23.10
2022-07-26T13:13:35.570Z,23.10
2022-07-26T13:16:09.581Z,23.10
2022-07-26T13:18:39.819Z,23.10
2022-07-26T13:21:09.363Z,23.10
2022-07-26T13:23:37.431Z,23.20
2022-07-26T13:26:09.055Z,23.20
2022-07-26T13:28:38.002Z,23.10
2022-07-26T13:31:06.768Z,23.10
2022-07-26T13:33:35.304Z,23.00
2022-07-26T13:36:03.838Z,22.90
2022-07-26T13:38:33.708Z,22.90
2022-07-26T13:41:03.537Z,22.80
2022-07-26T13:43:32.186Z,22.90
2022-07-26T13:46:00.361Z,23.00
2022-07-26T13:48:29.060Z,23.00
2022-07-26T13:50:58.021Z,23.10
2022-07-26T13:53:26.920Z,23.10
2022-07-26T13:55:56.474Z,23.10
2022-07-26T13:58:24.542Z,23.10
2022-07-26T14:00:52.720Z,23.10
2022-07-26T14:03:20.972Z,22.90
2022-07-26T14:05:49.066Z,22.80
2022-07-26T14:08:17.331Z,22.70
2022-07-26T14:10:45.733Z,22.70
2022-07-26T14:13:35.294Z,22.80
2022-07-26T14:16:03.406Z,22.80
2022-07-26T14:18:31.455Z,23.00
2022-07-26T14:20:59.486Z,22.90
2022-07-26T14:23:27.675Z,23.20
2022-07-26T14:25:55.693Z,23.30
2022-07-26T14:28:23.877Z,23.30
2022-07-26T14:30:53.545Z,23.50
2022-07-26T14:33:24.165Z,23.60
2022-07-26T14:35:52.371Z,23.60
2022-07-26T14:38:26.812Z,23.60
2022-07-26T14:40:58.177Z,23.60
2022-07-26T14:43:26.860Z,23.60
2022-07-26T14:45:56.410Z,23.70
2022-07-26T14:48:44.559Z,23.80
2022-07-26T14:51:14.060Z,23.90
2022-07-26T14:53:43.114Z,24.10
2022-07-26T14:56:11.086Z,24.20
2022-07-26T14:58:39.391Z,24.20
2022-07-26T15:01:09.361Z,24.10
2022-07-26T15:03:37.459Z,24.10
2022-07-26T15:06:05.789Z,24.10
2022-07-26T15:08:34.055Z,23.90
2022-07-26T15:11:02.440Z,23.80
2022-07-26T15:13:30.444Z,23.80
2022-07-26T15:15:58.452Z,23.90
2022-07-26T15:18:27.977Z,23.90
2022-07-26T15:20:57.643Z,23.80
2022-07-26T15:23:26.315Z,23.90
2022-07-26T15:25:54.528Z,23.80
2022-07-26T15:28:22.500Z,23.80
2022-07-26T15:30:50.599Z,23.90
2022-07-26T15:33:20.732Z,24.10
2022-07-26T15:35:52.691Z,24.10
2022-07-26T15:38:21.014Z,23.90
2022-07-26T15:40:49.564Z,23.90
2022-07-26T15:43:22.437Z,23.80
2022-07-26T15:46:10.631Z,23.80
2022-07-26T15:48:38.842Z,23.90
2022-07-26T15:51:08.577Z,24.10
2022-07-26T15:53:41.849Z,24.10
2022-07-26T15:56:14.049Z,24.10
2022-07-26T15:58:42.321Z,24.10
2022-07-26T16:01:14.281Z,24.00
2022-07-26T16:03:42.594Z,23.90
2022-07-26T16:06:11.936Z,23.80
2022-07-26T16:08:59.001Z,23.60
2022-07-26T16:11:28.761Z,23.60
2022-07-26T16:14:01.725Z,23.50
2022-07-26T16:16:30.450Z,23.40
2022-07-26T16:18:58.998Z,23.30
2022-07-26T16:21:28.458Z,23.20
2022-07-26T16:23:56.521Z,23.10
2022-07-26T16:26:25.701Z,23.00
2022-07-26T16:28:54.438Z,22.90
2022-07-26T16:31:22.807Z,22.70
2022-07-26T16:33:50.981Z,22.60
2022-07-26T16:36:19.174Z,22.50
2022-07-26T16:38:48.589Z,22.40
2022-07-26T16:41:16.648Z,22.40
2022-07-26T16:43:44.852Z,22.30
2022-07-26T16:46:12.942Z,22.30
2022-07-26T16:48:41.033Z,22.20
2022-07-26T16:51:09.198Z,22.20
2022-07-26T16:53:37.315Z,22.30
2022-07-26T16:56:07.340Z,22.50
2022-07-26T16:58:35.728Z,22.70
2022-07-26T17:01:04.167Z,22.70
2022-07-26T17:03:32.221Z,22.80
2022-07-26T17:06:06.121Z,22.70
2022-07-26T17:08:34.915Z,22.60
2022-07-26T17:11:02.955Z,22.60
2022-07-26T17:13:33.034Z,22.50
2022-07-26T17:16:02.437Z,22.50
2022-07-26T17:18:32.372Z,22.60
2022-07-26T17:21:00.441Z,22.80
2022-07-26T17:23:28.551Z,23.00
2022-07-26T17:25:56.694Z,23.10
2022-07-26T17:28:24.823Z,23.20
2022-07-26T17:30:54.232Z,23.20
2022-07-26T17:33:22.280Z,23.10
2022-07-26T17:35:50.924Z,23.10
2022-07-26T17:38:18.982Z,22.90
2022-07-26T17:40:48.001Z,22.80
2022-07-26T17:43:16.981Z,22.70
2022-07-26T17:45:45.438Z,22.60
2022-07-26T17:48:14.985Z,22.40
2022-07-26T17:50:43.212Z,22.40
2022-07-26T17:53:11.289Z,22.30
2022-07-26T17:55:39.263Z,22.20
2022-07-26T17:58:07.350Z,22.20
2022-07-26T18:00:35.710Z,22.10
2022-07-26T18:03:03.762Z,22.10
2022-07-26T18:05:40.886Z,22.00
2022-07-26T18:08:09.398Z,22.00
2022-07-26T18:10:37.773Z,22.00
2022-07-26T18:13:05.857Z,22.00
2022-07-26T18:15:34.042Z,22.00
2022-07-26T18:18:02.426Z,22.00
2022-07-26T18:20:33.627Z,22.00
2022-07-26T18:23:02.740Z,22.00
2022-07-26T18:25:31.415Z,22.00
2022-07-26T18:28:03.373Z,21.90
2022-07-26T18:30:34.833Z,21.90
2022-07-26T18:33:23.744Z,21.80
2022-07-26T18:35:56.935Z,21.70
2022-07-26T18:38:25.407Z,21.70
2022-07-26T18:40:53.751Z,21.60
2022-07-26T18:43:22.285Z,21.50
2022-07-26T18:45:51.636Z,21.50
2022-07-26T18:48:21.267Z,21.40
2022-07-26T18:50:52.603Z,21.30
2022-07-26T18:53:22.933Z,21.30
2022-07-26T18:55:51.772Z,21.20
2022-07-26T18:58:21.719Z,21.10
2022-07-26T19:00:55.794Z,21.10
2022-07-26T19:03:23.898Z,21.10
2022-07-26T19:05:52.001Z,21.10
2022-07-26T19:08:20.387Z,21.00
2022-07-26T19:10:52.729Z,21.00
2022-07-26T19:13:21.442Z,21.00
2022-07-26T19:15:50.975Z,20.90
2022-07-26T19:18:19.246Z,20.90
2022-07-26T19:20:47.844Z,20.90
2022-07-26T19:23:16.103Z,20.90
2022-07-26T19:25:44.281Z,20.80
2022-07-26T19:28:16.068Z,20.80
2022-07-26T19:30:45.668Z,20.80
2022-07-26T19:33:14.330Z,20.80
2022-07-26T19:35:42.765Z,20.70
2022-07-26T19:38:11.870Z,20.70
2022-07-26T19:40:40.174Z,20.70
2022-07-26T19:43:08.702Z,20.70
2022-07-26T19:45:38.872Z,20.60
2022-07-26T19:48:07.806Z,20.60
2022-07-26T19:50:35.976Z,20.60
2022-07-26T19:53:04.386Z,20.50
2022-07-26T19:55:32.685Z,20.60
2022-07-26T19:58:00.812Z,20.50
2022-07-26T20:00:29.498Z,20.50
2022-07-26T20:02:59.088Z,20.50
2022-07-26T20:05:27.526Z,20.40
2022-07-26T20:07:55.659Z,20.40
2022-07-26T20:10:27.417Z,20.40
2022-07-26T20:13:00.225Z,20.40
2022-07-26T20:15:28.564Z,20.30
2022-07-26T20:17:59.377Z,20.30
2022-07-26T20:20:27.859Z,20.30
2022-07-26T20:22:56.706Z,20.30
2022-07-26T20:25:25.675Z,20.30
2022-07-26T20:27:54.462Z,20.40
2022-07-26T20:30:23.654Z,20.30
2022-07-26T20:32:54.163Z,20.30
2022-07-26T20:35:23.985Z,20.30
2022-07-26T20:38:13.755Z,20.30
2022-07-26T20:40:43.147Z,20.20
2022-07-26T20:43:11.364Z,20.20
2022-07-26T20:45:41.918Z,20.20
2022-07-26T20:48:11.353Z,20.20
2022-07-26T20:50:41.087Z,20.20
2022-07-26T20:53:09.538Z,20.20
2022-07-26T20:55:37.805Z,20.10
2022-07-26T20:58:06.026Z,20.10
2022-07-26T21:00:40.940Z,20.10
2022-07-26T21:03:09.921Z,20.10
2022-07-26T21:05:40.798Z,20.00
2022-07-26T21:08:08.951Z,20.00
2022-07-26T21:10:37.793Z,20.00
2022-07-26T21:13:07.428Z,20.00
2022-07-26T21:15:37.259Z,20.00
2022-07-26T21:18:05.870Z,20.00
2022-07-26T21:20:35.995Z,20.00
2022-07-26T21:23:16.860Z,20.00
2022-07-26T21:25:47.621Z,20.00
2022-07-26T21:28:15.954Z,20.00
2022-07-26T21:30:44.055Z,20.00
2022-07-26T21:33:12.182Z,20.00
2022-07-26T21:35:41.073Z,19.90
2022-07-26T21:38:11.013Z,19.90
2022-07-26T21:40:40.292Z,19.90
2022-07-26T21:43:08.369Z,19.90
2022-07-26T21:45:37.233Z,19.90
2022-07-26T21:48:05.468Z,19.90
2022-07-26T21:50:33.558Z,19.90
2022-07-26T21:53:02.100Z,19.90
2022-07-26T21:55:31.622Z,19.80
2022-07-26T21:58:25.358Z,19.80
2022-07-26T22:01:03.489Z,19.80
2022-07-26T22:03:38.444Z,19.80
2022-07-26T22:06:07.675Z,19.70
2022-07-26T22:08:36.157Z,19.70
2022-07-26T22:11:07.839Z,19.70
2022-07-26T22:13:36.691Z,19.70
2022-07-26T22:16:06.135Z,19.70
2022-07-26T22:18:34.293Z,19.70
2022-07-26T22:21:02.668Z,19.70
2022-07-26T22:23:31.067Z,19.70
2022-07-26T22:26:02.795Z,19.70
2022-07-26T22:28:34.557Z,19.70
2022-07-26T22:31:03.019Z,19.70
2022-07-26T22:33:31.265Z,19.60
2022-07-26T22:35:59.409Z,19.70
2022-07-26T22:38:28.678Z,19.60
2022-07-26T22:40:56.730Z,19.60
2022-07-26T22:43:24.873Z,19.60
2022-07-26T22:45:57.971Z,19.60
2022-07-26T22:48:26.052Z,19.60
2022-07-26T22:50:54.492Z,19.60
2022-07-26T22:53:22.847Z,19.60
2022-07-26T22:55:51.343Z,19.50
2022-07-26T22:58:20.139Z,19.60
2022-07-26T23:00:48.307Z,19.60
2022-07-26T23:03:20.599Z,19.50
2022-07-26T23:05:52.207Z,19.50
2022-07-26T23:11:09.734Z,19.50
2022-07-26T23:13:37.895Z,19.50
2022-07-26T23:16:06.608Z,19.50
2022-07-26T23:18:36.251Z,19.50
2022-07-26T23:21:07.612Z,19.50
2022-07-26T23:23:35.829Z,19.40
2022-07-26T23:26:05.378Z,19.40
2022-07-26T23:28:38.409Z,19.40
2022-07-26T23:31:11.381Z,19.40
2022-07-26T23:33:51.648Z,19.40
2022-07-26T23:36:28.820Z,19.40
2022-07-26T23:38:57.972Z,19.40
2022-07-26T23:41:28.370Z,19.30
2022-07-26T23:43:56.817Z,19.30
2022-07-26T23:46:27.271Z,19.30
2022-07-26T23:48:58.532Z,19.30
2022-07-26T23:51:27.002Z,19.30
2022-07-26T23:53:59.854Z,19.30
2022-07-26T23:56:28.540Z,19.30
2022-07-26T23:58:56.808Z,19.20
